Time;durP1;ratioP1;P1;durP2;ratioP2;P2;SDS_P1;SDS_P2;PMS_P1;PMS_P2;Temp;Humidity;BMP_temperature;BMP_pressure;BME280_temperature;BME280_humidity;BME280_pressure;Samples;Min_cycle;Max_cycle;Signal;HPM_P1;HPM_P2
2023/02/18 00:00:29;;;;;;;2.80;2.60;;;21.90;35.70;;;;;;5056312;28;20431;-63
2023/02/18 00:02:57;;;;;;;4.90;2.67;;;21.90;35.70;;;;;;5056420;28;20059;-63
2023/02/18 00:05:24;;;;;;;3.05;2.75;;;21.80;35.60;;;;;;5056002;28;20128;-63
2023/02/18 00:07:52;;;;;;;3.00;2.70;;;21.90;35.70;;;;;;5055857;28;20127;-63
2023/02/18 00:10:19;;;;;;;3.33;3.00;;;21.80;35.60;;;;;;5055991;28;20067;-63
2023/02/18 00:12:46;;;;;;;2.92;2.63;;;21.80;35.60;;;;;;5055691;28;20132;-63
2023/02/18 00:15:13;;;;;;;2.63;2.38;;;21.80;35.70;;;;;;5056030;28;20564;-63
2023/02/18 00:17:40;;;;;;;3.55;3.05;;;21.80;35.70;;;;;;5055999;28;20513;-63
2023/02/18 00:20:08;;;;;;;3.40;3.10;;;21.80;35.70;;;;;;5055926;28;20048;-63
2023/02/18 00:22:35;;;;;;;3.40;3.03;;;21.80;35.70;;;;;;5055840;28;20084;-63
2023/02/18 00:25:02;;;;;;;3.45;3.10;;;21.80;35.70;;;;;;5055935;28;20057;-63
2023/02/18 00:27:29;;;;;;;3.35;3.05;;;21.80;35.70;;;;;;5055607;28;20471;-63
2023/02/18 00:29:57;;;;;;;3.25;2.95;;;21.80;35.70;;;;;;5055792;28;20049;-63
2023/02/18 00:32:24;;;;;;;3.63;3.17;;;21.80;35.70;;;;;;5055559;28;20121;-63
2023/02/18 00:34:52;;;;;;;2.97;2.67;;;21.80;35.70;;;;;;5055873;28;20044;-63
2023/02/18 00:37:19;;;;;;;3.92;3.03;;;21.80;35.70;;;;;;5055424;28;20053;-63
2023/02/18 00:39:46;;;;;;;3.20;2.90;;;21.80;35.70;;;;;;5055424;28;20057;-63
2023/02/18 00:42:13;;;;;;;3.03;2.75;;;21.80;35.70;;;;;;5055666;28;20560;-63
2023/02/18 00:44:40;;;;;;;3.00;2.70;;;21.70;35.60;;;;;;5055470;28;20063;-63
2023/02/18 00:47:07;;;;;;;2.90;2.70;;;21.80;35.70;;;;;;5053758;28;20056;-63
2023/02/18 00:49:35;;;;;;;3.10;2.80;;;21.70;35.60;;;;;;5055649;28;20059;-63
2023/02/18 00:52:02;;;;;;;3.15;2.85;;;21.70;35.60;;;;;;5055557;28;20071;-63
2023/02/18 00:54:29;;;;;;;2.80;2.60;;;21.80;35.70;;;;;;5054990;28;20041;-63
2023/02/18 00:56:56;;;;;;;3.05;2.75;;;21.80;35.70;;;;;;5054558;28;20067;-63
2023/02/18 00:59:23;;;;;;;3.10;2.80;;;21.80;35.70;;;;;;5054758;28;20128;-63
2023/02/18 01:01:51;;;;;;;3.28;3.00;;;21.80;35.70;;;;;;5055199;28;20061;-64
2023/02/18 01:04:18;;;;;;;3.33;3.03;;;21.80;35.70;;;;;;5055303;28;20110;-63
2023/02/18 01:06:45;;;;;;;3.63;3.33;;;21.80;35.70;;;;;;5054201;28;20106;-63
2023/02/18 01:09:12;;;;;;;2.78;2.58;;;21.80;35.70;;;;;;5054758;28;20087;-63
2023/02/18 01:11:39;;;;;;;3.00;2.65;;;21.70;35.60;;;;;;5054707;28;20087;-63
2023/02/18 01:14:06;;;;;;;3.10;2.90;;;21.80;35.70;;;;;;5055020;28;20497;-63
2023/02/18 01:16:33;;;;;;;3.30;3.00;;;21.70;35.60;;;;;;5054702;28;20049;-63
2023/02/18 01:19:00;;;;;;;3.35;3.05;;;21.80;35.60;;;;;;5054052;28;20056;-63
2023/02/18 01:21:27;;;;;;;3.50;3.20;;;21.80;35.70;;;;;;5054417;28;20049;-63
2023/02/18 01:23:54;;;;;;;3.10;2.80;;;21.80;35.70;;;;;;5053895;28;20063;-63
2023/02/18 01:26:22;;;;;;;3.55;3.25;;;21.80;35.70;;;;;;5053577;28;20438;-65
2023/02/18 01:28:49;;;;;;;3.67;3.30;;;21.70;35.60;;;;;;5054540;28;20053;-63
2023/02/18 01:31:16;;;;;;;3.45;3.08;;;21.70;35.60;;;;;;5054137;28;20052;-63
2023/02/18 01:33:43;;;;;;;2.70;2.50;;;21.70;35.60;;;;;;5054416;28;20041;-63
2023/02/18 01:36:11;;;;;;;3.22;2.90;;;21.70;35.60;;;;;;5054552;28;20049;-63
2023/02/18 01:38:38;;;;;;;3.40;3.10;;;21.70;35.60;;;;;;5054839;28;20049;-63
2023/02/18 01:41:06;;;;;;;3.47;3.17;;;21.70;35.60;;;;;;5054417;28;20457;-63
2023/02/18 01:43:33;;;;;;;3.83;3.33;;;21.70;35.60;;;;;;5054500;28;20119;-63
2023/02/18 01:46:20;;;;;;;3.30;3.00;;;21.70;35.60;;;;;;5054440;28;20136;-64
2023/02/18 01:48:56;;;;;;;3.30;3.00;;;21.70;35.70;;;;;;5054245;28;20524;-63
2023/02/18 01:51:33;;;;;;;3.67;3.38;;;21.70;35.70;;;;;;5054060;28;20045;-63
2023/02/18 01:54:18;;;;;;;3.38;3.08;;;21.70;35.60;;;;;;5054174;28;20045;-63
2023/02/18 01:56:54;;;;;;;3.15;2.92;;;21.70;35.60;;;;;;5053928;28;20053;-63
2023/02/18 01:59:27;;;;;;;3.92;2.85;;;21.70;35.60;;;;;;5052904;28;20053;-63
2023/02/18 02:01:55;;;;;;;3.10;2.90;;;21.70;35.60;;;;;;5052486;28;20136;-63
2023/02/18 02:04:22;;;;;;;3.40;3.10;;;21.60;35.60;;;;;;5053992;28;20045;-63
2023/02/18 02:06:50;;;;;;;3.60;3.30;;;21.60;35.60;;;;;;5053735;28;20516;-63
2023/02/18 02:09:19;;;;;;;4.03;3.63;;;21.60;35.60;;;;;;5053089;28;20071;-63
2023/02/18 02:12:11;;;;;;;4.72;3.40;;;21.60;35.60;;;;;;5053728;28;20543;-63
2023/02/18 02:15:17;;;;;;;4.15;3.60;;;21.60;35.60;;;;;;5053872;28;20115;-63
2023/02/18 02:18:00;;;;;;;3.65;3.33;;;21.60;35.60;;;;;;5053550;28;20054;-63
2023/02/18 02:21:10;;;;;;;4.07;3.65;;;21.60;35.60;;;;;;5053811;28;20124;-63
2023/02/18 02:24:17;;;;;;;3.60;3.30;;;21.60;35.60;;;;;;5053430;28;20045;-63
2023/02/18 02:27:17;;;;;;;2.92;2.72;;;21.60;35.60;;;;;;5053740;28;20055;-63
2023/02/18 02:30:24;;;;;;;3.70;3.35;;;21.60;35.60;;;;;;5053691;28;20045;-63
2023/02/18 02:33:31;;;;;;;3.33;3.03;;;21.60;35.60;;;;;;5053258;28;20045;-63
2023/02/18 02:36:22;;;;;;;6.25;3.60;;;21.60;35.60;;;;;;5053526;28;20077;-63
2023/02/18 02:39:01;;;;;;;3.35;3.05;;;21.60;35.60;;;;;;5053505;28;20072;-63
2023/02/18 02:41:55;;;;;;;3.47;3.17;;;21.60;35.70;;;;;;5053276;28;20049;-63
2023/02/18 02:44:35;;;;;;;3.30;3.00;;;21.60;35.60;;;;;;5053759;28;20123;-63
2023/02/18 02:47:35;;;;;;;3.25;2.95;;;21.60;35.70;;;;;;5052946;28;20088;-63
2023/02/18 02:50:12;;;;;;;3.90;3.35;;;21.60;35.70;;;;;;5052847;28;20143;-63
2023/02/18 02:52:44;;;;;;;3.85;3.17;;;21.60;36.20;;;;;;5053007;28;20080;-63
2023/02/18 02:55:12;;;;;;;3.60;3.30;;;21.50;35.60;;;;;;5052851;28;20574;-63
2023/02/18 02:57:49;;;;;;;3.78;3.47;;;21.50;35.70;;;;;;5053124;28;20475;-63
2023/02/18 03:00:20;;;;;;;3.67;3.38;;;21.50;35.70;;;;;;5052240;28;20461;-63
2023/02/18 03:03:06;;;;;;;3.78;3.45;;;21.50;35.70;;;;;;5052668;28;20489;-63
2023/02/18 03:06:09;;;;;;;4.15;3.47;;;21.50;35.60;;;;;;5053143;28;20470;-63
2023/02/18 03:09:13;;;;;;;3.72;3.42;;;21.50;35.60;;;;;;5052534;28;20140;-63
2023/02/18 03:12:03;;;;;;;3.90;3.33;;;21.60;35.70;;;;;;5051511;28;20131;-63
2023/02/18 03:14:50;;;;;;;3.45;3.15;;;21.50;35.60;;;;;;5053133;28;20382;-63
2023/02/18 03:17:26;;;;;;;3.65;3.33;;;21.50;35.60;;;;;;5052572;28;20059;-64
2023/02/18 03:20:12;;;;;;;4.05;3.38;;;21.60;35.60;;;;;;5052791;28;20102;-63
2023/02/18 03:22:46;;;;;;;4.22;3.63;;;21.50;35.60;;;;;;5053122;28;20048;-63
2023/02/18 03:25:15;;;;;;;3.10;2.90;;;21.50;35.60;;;;;;5052614;28;20052;-64
2023/02/18 03:27:58;;;;;;;3.78;3.47;;;21.50;35.60;;;;;;5052718;28;20045;-63
2023/02/18 03:30:30;;;;;;;3.85;3.55;;;21.50;35.60;;;;;;5052568;28;20053;-63
2023/02/18 03:33:04;;;;;;;3.40;3.10;;;21.50;35.60;;;;;;5052657;28;20102;-63
2023/02/18 03:35:31;;;;;;;4.07;3.67;;;21.50;35.60;;;;;;5052667;28;20055;-63
2023/02/18 03:38:08;;;;;;;4.40;3.70;;;21.50;35.60;;;;;;5052601;28;20599;-63
2023/02/18 03:40:35;;;;;;;3.70;3.38;;;21.50;35.60;;;;;;5052235;28;20049;-63
2023/02/18 03:43:02;;;;;;;3.63;3.15;;;21.50;35.50;;;;;;5051137;28;20056;-63
2023/02/18 03:45:29;;;;;;;5.25;3.40;;;21.50;35.60;;;;;;5052793;28;20049;-63
2023/02/18 03:47:57;;;;;;;3.58;3.28;;;21.50;35.50;;;;;;5052643;28;20132;-63
2023/02/18 03:50:24;;;;;;;3.70;3.40;;;21.50;35.50;;;;;;5052616;28;20056;-63
2023/02/18 03:52:51;;;;;;;4.60;3.58;;;21.50;35.60;;;;;;5052199;28;20051;-63
2023/02/18 03:55:18;;;;;;;4.75;3.50;;;21.50;35.60;;;;;;5052160;28;20045;-64
2023/02/18 03:57:45;;;;;;;3.85;3.55;;;21.50;35.60;;;;;;5052351;28;20475;-63
2023/02/18 04:00:13;;;;;;;3.63;3.33;;;21.50;35.50;;;;;;5052742;28;20144;-63
2023/02/18 04:02:40;;;;;;;3.53;3.22;;;21.50;35.60;;;;;;5051958;28;20137;-63
2023/02/18 04:05:08;;;;;;;3.67;3.38;;;21.50;35.50;;;;;;5052058;28;20048;-63
2023/02/18 04:07:35;;;;;;;3.67;3.38;;;21.50;35.50;;;;;;5052625;28;20041;-63
2023/02/18 04:10:04;;;;;;;3.60;3.30;;;21.40;35.50;;;;;;5052557;28;20468;-63
2023/02/18 04:12:31;;;;;;;3.97;3.35;;;21.50;35.50;;;;;;5051872;28;20053;-63
2023/02/18 04:14:58;;;;;;;3.17;2.88;;;21.50;35.60;;;;;;5052151;28;20049;-63
2023/02/18 04:17:25;;;;;;;3.95;3.55;;;21.50;35.60;;;;;;5052275;28;20056;-64
2023/02/18 04:19:53;;;;;;;4.28;3.55;;;21.50;35.60;;;;;;5052505;28;20099;-63
2023/02/18 04:22:20;;;;;;;3.67;3.38;;;21.50;35.60;;;;;;5051885;28;20503;-63
2023/02/18 04:24:47;;;;;;;3.60;3.30;;;21.40;35.50;;;;;;5052441;28;20052;-63
2023/02/18 04:27:14;;;;;;;3.42;3.13;;;21.50;35.60;;;;;;5051984;28;20048;-63
2023/02/18 04:29:41;;;;;;;4.70;3.80;;;21.40;35.50;;;;;;5052164;28;20408;-63
2023/02/18 04:32:08;;;;;;;3.08;2.88;;;21.40;35.50;;;;;;5051575;28;20055;-63
2023/02/18 04:34:35;;;;;;;3.25;3.00;;;21.40;35.50;;;;;;5055550;28;20135;-63
2023/02/18 04:37:03;;;;;;;3.65;3.33;;;21.40;35.50;;;;;;5055737;28;20056;-63
2023/02/18 04:39:30;;;;;;;3.67;3.20;;;21.40;35.50;;;;;;5055563;28;20049;-63
2023/02/18 04:41:57;;;;;;;4.30;3.90;;;21.40;35.50;;;;;;5055719;28;20049;-63
2023/02/18 04:44:24;;;;;;;3.53;3.22;;;21.40;35.50;;;;;;5055509;28;20049;-63
2023/02/18 04:46:51;;;;;;;3.55;3.17;;;21.40;35.50;;;;;;5055048;28;20049;-63
2023/02/18 04:49:18;;;;;;;4.00;3.50;;;21.40;35.50;;;;;;5055513;28;20084;-63
2023/02/18 04:51:45;;;;;;;3.08;2.85;;;21.40;35.50;;;;;;5055306;28;20045;-63
2023/02/18 04:54:12;;;;;;;3.05;2.85;;;21.40;35.50;;;;;;5055539;28;20448;-63
2023/02/18 04:56:40;;;;;;;3.10;2.80;;;21.40;35.50;;;;;;5055241;28;20095;-63
2023/02/18 04:59:07;;;;;;;3.40;3.10;;;21.40;35.50;;;;;;5054961;28;20092;-63
2023/02/18 05:01:34;;;;;;;3.60;3.30;;;21.40;35.60;;;;;;5055179;28;20055;-64
2023/02/18 05:04:01;;;;;;;4.80;3.33;;;21.40;35.60;;;;;;5055067;28;20041;-62
2023/02/18 05:06:31;;;;;;;3.83;3.47;;;21.40;35.60;;;;;;5054869;28;20515;-64
2023/02/18 05:08:58;;;;;;;4.20;3.78;;;21.40;35.60;;;;;;5054962;28;20127;-63
2023/02/18 05:11:25;;;;;;;3.58;3.28;;;21.40;35.60;;;;;;5055127;28;20053;-63
2023/02/18 05:13:53;;;;;;;3.88;3.30;;;21.40;35.60;;;;;;5055204;28;20128;-63
2023/02/18 05:16:20;;;;;;;3.92;3.53;;;21.40;35.50;;;;;;5055128;28;20044;-63
2023/02/18 05:18:47;;;;;;;4.13;3.72;;;21.40;35.50;;;;;;5053969;28;20086;-63
2023/02/18 05:21:14;;;;;;;3.38;3.08;;;21.40;35.50;;;;;;5053359;28;20087;-63
2023/02/18 05:23:41;;;;;;;3.70;3.30;;;21.40;35.50;;;;;;5054789;28;20092;-63
2023/02/18 05:26:08;;;;;;;3.92;3.33;;;21.40;35.50;;;;;;5054379;28;20084;-63
2023/02/18 05:28:36;;;;;;;3.58;3.28;;;21.40;35.50;;;;;;5054544;28;20536;-63
2023/02/18 05:31:03;;;;;;;3.97;3.03;;;21.50;35.50;;;;;;5054716;28;20060;-63
2023/02/18 05:33:30;;;;;;;3.53;3.22;;;21.40;35.50;;;;;;5054822;28;20049;-63
2023/02/18 05:35:57;;;;;;;5.65;4.40;;;21.40;35.50;;;;;;5054580;28;20045;-63
2023/02/18 05:38:24;;;;;;;5.65;4.70;;;21.40;35.40;;;;;;5054320;28;20504;-63
2023/02/18 05:40:52;;;;;;;6.13;5.30;;;21.40;35.20;;;;;;5054359;28;20135;-63
2023/02/18 05:43:19;;;;;;;6.82;5.35;;;21.40;35.20;;;;;;5053633;28;20343;-63
2023/02/18 05:45:46;;;;;;;9.02;6.22;;;21.40;35.20;;;;;;5053954;28;20049;-63
2023/02/18 05:48:13;;;;;;;9.20;6.28;;;21.40;35.20;;;;;;5054222;28;20136;-63
2023/02/18 05:50:40;;;;;;;7.95;6.15;;;21.30;35.10;;;;;;5054539;28;20420;-63
2023/02/18 05:53:07;;;;;;;7.18;5.38;;;21.30;35.10;;;;;;5053594;28;20424;-63
2023/02/18 05:55:37;;;;;;;8.38;5.93;;;21.30;35.20;;;;;;5054139;28;20088;-63
2023/02/18 05:58:05;;;;;;;6.65;5.25;;;21.30;35.20;;;;;;5054252;28;20052;-63
2023/02/18 06:00:32;;;;;;;7.35;5.57;;;21.30;35.20;;;;;;5054107;28;20064;-63
2023/02/18 06:02:59;;;;;;;5.47;4.70;;;21.40;35.30;;;;;;5054298;28;20404;-62
2023/02/18 06:05:26;;;;;;;8.15;6.07;;;21.40;35.30;;;;;;5054297;28;20107;-63
2023/02/18 06:07:54;;;;;;;7.75;5.57;;;21.40;35.30;;;;;;5054222;28;20044;-62
2023/02/18 06:10:22;;;;;;;7.90;5.60;;;21.40;35.20;;;;;;5053595;28;20136;-63
2023/02/18 06:12:49;;;;;;;7.93;6.03;;;21.40;35.10;;;;;;5053844;28;20471;-63
2023/02/18 06:15:17;;;;;;;6.85;6.15;;;21.40;35.00;;;;;;5053633;28;20057;-63
2023/02/18 06:17:44;;;;;;;7.70;6.40;;;21.50;34.90;;;;;;5053585;28;20508;-63
2023/02/18 06:20:11;;;;;;;8.20;5.93;;;21.50;34.90;;;;;;5053668;28;20140;-63
2023/02/18 06:22:38;;;;;;;7.78;5.78;;;21.60;34.90;;;;;;5053166;28;20055;-63
2023/02/18 06:25:06;;;;;;;8.43;6.47;;;21.60;34.80;;;;;;5053801;28;20124;-63
2023/02/18 06:27:33;;;;;;;8.13;6.60;;;21.60;34.70;;;;;;5053403;28;20048;-63
2023/02/18 06:30:00;;;;;;;7.97;6.28;;;21.70;34.70;;;;;;5053478;28;20041;-63
2023/02/18 06:32:27;;;;;;;8.88;6.72;;;21.70;34.60;;;;;;5053245;28;20139;-63
2023/02/18 06:34:54;;;;;;;8.15;6.22;;;21.70;34.50;;;;;;5053757;28;20127;-62
2023/02/18 06:37:21;;;;;;;7.97;6.53;;;21.70;34.50;;;;;;5051578;28;20064;-63
2023/02/18 06:39:49;;;;;;;8.73;6.70;;;21.80;34.50;;;;;;5053215;28;20105;-63
2023/02/18 06:42:16;;;;;;;9.88;6.80;;;21.80;34.40;;;;;;5053213;28;20088;-63
2023/02/18 06:44:43;;;;;;;7.10;5.88;;;21.80;34.30;;;;;;5052931;28;20049;-63
2023/02/18 06:47:10;;;;;;;8.80;5.70;;;21.80;34.40;;;;;;5052921;28;20081;-63
2023/02/18 06:49:37;;;;;;;6.72;5.60;;;21.90;34.50;;;;;;5051990;28;20052;-62
2023/02/18 06:52:05;;;;;;;7.32;6.40;;;21.90;34.40;;;;;;5052708;28;20052;-63
2023/02/18 06:54:33;;;;;;;9.05;6.15;;;21.90;34.40;;;;;;5053258;28;20049;-63
2023/02/18 06:57:00;;;;;;;7.47;5.43;;;21.90;34.30;;;;;;5052193;28;20094;-63
2023/02/18 06:59:27;;;;;;;7.85;6.45;;;21.90;34.40;;;;;;5052934;28;20416;-63
2023/02/18 07:01:54;;;;;;;6.63;5.72;;;21.90;34.30;;;;;;5053047;28;20512;-63
2023/02/18 07:04:21;;;;;;;6.75;5.55;;;22.00;34.40;;;;;;5053593;28;20136;-62
2023/02/18 07:06:49;;;;;;;7.78;5.90;;;22.00;34.40;;;;;;5052860;28;20076;-63
2023/02/18 07:09:16;;;;;;;6.60;5.50;;;22.00;34.40;;;;;;5053022;28;20438;-63
2023/02/18 07:11:43;;;;;;;8.40;5.93;;;22.00;34.30;;;;;;5052704;28;20045;-63
2023/02/18 07:14:10;;;;;;;7.88;5.97;;;22.00;34.30;;;;;;5052994;28;20092;-63
2023/02/18 07:16:37;;;;;;;9.75;6.10;;;22.00;34.30;;;;;;5052465;28;20049;-63
2023/02/18 07:19:04;;;;;;;8.38;6.22;;;22.10;34.20;;;;;;5052757;28;20045;-63
2023/02/18 07:21:31;;;;;;;8.05;6.22;;;22.10;34.20;;;;;;5052897;28;20056;-63
2023/02/18 07:23:58;;;;;;;8.60;6.10;;;22.10;34.10;;;;;;5052901;28;20080;-63
2023/02/18 07:26:26;;;;;;;8.35;6.60;;;22.10;34.10;;;;;;5052532;28;20052;-63
2023/02/18 07:28:53;;;;;;;9.25;6.60;;;22.10;34.10;;;;;;5052992;28;20044;-63
2023/02/18 07:31:20;;;;;;;8.02;6.18;;;22.10;34.00;;;;;;5052843;28;20056;-63
2023/02/18 07:33:47;;;;;;;9.02;6.15;;;22.20;34.00;;;;;;5052498;28;20053;-63
2023/02/18 07:36:14;;;;;;;8.38;6.35;;;22.20;34.00;;;;;;5052926;28;20072;-62
2023/02/18 07:38:41;;;;;;;7.75;6.50;;;22.30;34.00;;;;;;5052931;28;20055;-63
2023/02/18 07:41:22;;;;;;;8.75;7.43;;;22.20;33.90;;;;;;5052539;28;20144;-63
2023/02/18 07:43:49;;;;;;;8.82;7.68;;;22.30;33.90;;;;;;5052934;28;20044;-63
2023/02/18 07:46:18;;;;;;;9.85;6.93;;;22.30;33.90;;;;;;5052835;28;20132;-63
2023/02/18 07:48:45;;;;;;;9.98;7.18;;;22.30;33.90;;;;;;5052523;28;20055;-63
2023/02/18 07:51:12;;;;;;;11.18;7.70;;;22.30;33.80;;;;;;5051908;28;20045;-63
2023/02/18 07:53:40;;;;;;;9.73;7.22;;;22.30;33.70;;;;;;5052399;28;20489;-63
2023/02/18 07:56:07;;;;;;;9.50;7.35;;;22.30;33.70;;;;;;5052248;28;20068;-63
2023/02/18 07:58:36;;;;;;;10.35;8.02;;;22.40;33.70;;;;;;5052545;28;20049;-63
2023/02/18 08:01:10;;;;;;;11.40;8.15;;;22.40;33.70;;;;;;5034282;28;20051;-63
2023/02/18 08:03:37;;;;;;;10.27;7.63;;;22.40;33.60;;;;;;5052243;28;20136;-63
2023/02/18 08:06:05;;;;;;;9.63;7.80;;;22.40;34.20;;;;;;5052025;28;20084;-63
2023/02/18 08:08:33;;;;;;;12.15;8.20;;;22.40;33.60;;;;;;5056252;28;20041;-63
2023/02/18 08:11:05;;;;;;;10.82;7.97;;;22.50;33.60;;;;;;5056073;28;20048;-63
2023/02/18 08:13:44;;;;;;;9.90;8.02;;;22.50;33.50;;;;;;5056490;28;20141;-63
2023/02/18 08:16:14;;;;;;;10.60;7.55;;;22.50;33.50;;;;;;5055128;28;20124;-63
2023/02/18 08:18:41;;;;;;;10.65;8.13;;;22.50;33.50;;;;;;5056426;28;20049;-63
2023/02/18 08:21:08;;;;;;;9.52;7.60;;;22.50;33.40;;;;;;5055790;28;20404;-63
2023/02/18 08:23:35;;;;;;;11.52;8.18;;;22.50;33.30;;;;;;5055871;28;20075;-63
2023/02/18 08:26:02;;;;;;;9.35;7.40;;;22.60;33.40;;;;;;5056012;28;20048;-63
2023/02/18 08:28:29;;;;;;;8.90;7.07;;;22.60;33.40;;;;;;5055926;28;20135;-63
2023/02/18 08:30:58;;;;;;;11.05;8.55;;;22.60;33.30;;;;;;5055647;28;20084;-63
2023/02/18 08:33:25;;;;;;;11.88;7.80;;;22.60;33.30;;;;;;5055465;28;20048;-63
2023/02/18 08:35:55;;;;;;;10.70;7.95;;;22.60;33.20;;;;;;5055836;28;20073;-63
2023/02/18 08:38:23;;;;;;;9.82;7.15;;;22.60;33.80;;;;;;5055775;28;20458;-63
2023/02/18 08:40:59;;;;;;;10.65;7.55;;;22.70;33.20;;;;;;5055493;28;20041;-63
2023/02/18 08:43:26;;;;;;;10.50;8.18;;;22.60;33.20;;;;;;5055576;28;20055;-63
2023/02/18 08:45:53;;;;;;;11.32;8.50;;;22.70;33.20;;;;;;5055422;28;20087;-62
2023/02/18 08:48:21;;;;;;;10.50;8.18;;;22.70;33.10;;;;;;5055797;28;20052;-63
2023/02/18 08:50:48;;;;;;;11.45;7.25;;;22.70;33.10;;;;;;5055478;28;20048;-63
2023/02/18 08:53:16;;;;;;;11.55;8.27;;;22.70;33.10;;;;;;5054835;28;20140;-63
2023/02/18 08:55:43;;;;;;;10.82;8.43;;;22.80;33.10;;;;;;5055143;28;20207;-63
2023/02/18 08:58:11;;;;;;;11.43;8.45;;;22.80;33.10;;;;;;5055138;28;20087;-64
2023/02/18 09:00:40;;;;;;;11.07;8.38;;;22.80;33.10;;;;;;5055230;28;20052;-63
2023/02/18 09:03:10;;;;;;;10.10;8.13;;;22.80;33.00;;;;;;5054939;28;20056;-64
2023/02/18 09:05:39;;;;;;;10.50;8.48;;;22.80;33.00;;;;;;5055344;28;20152;-63
2023/02/18 09:08:06;;;;;;;9.98;8.05;;;22.80;33.00;;;;;;5055123;28;20554;-63
2023/02/18 09:10:34;;;;;;;11.80;7.57;;;22.90;33.00;;;;;;5055018;28;20059;-63
2023/02/18 09:13:01;;;;;;;11.68;8.77;;;22.90;33.00;;;;;;5054427;28;20049;-63
2023/02/18 09:15:28;;;;;;;10.55;7.95;;;22.90;32.90;;;;;;5053308;28;20143;-63
2023/02/18 09:17:55;;;;;;;9.13;7.15;;;22.90;32.90;;;;;;5054889;28;20092;-63
2023/02/18 09:20:22;;;;;;;8.65;7.20;;;23.00;33.40;;;;;;5054337;28;20140;-63
2023/02/18 09:22:49;;;;;;;9.32;7.45;;;23.00;32.80;;;;;;5053601;28;20055;-63
2023/02/18 09:25:16;;;;;;;10.98;7.97;;;23.00;32.70;;;;;;5053847;28;20041;-63
2023/02/18 09:27:43;;;;;;;9.77;7.88;;;23.10;32.70;;;;;;5054376;28;20477;-63
2023/02/18 09:30:11;;;;;;;10.95;7.63;;;23.10;32.60;;;;;;5053710;28;20050;-65
2023/02/18 09:32:38;;;;;;;10.35;7.53;;;23.10;32.60;;;;;;5054455;28;20056;-63
2023/02/18 09:35:06;;;;;;;11.25;7.75;;;23.20;32.60;;;;;;5054504;28;20090;-63
2023/02/18 09:37:33;;;;;;;8.52;7.38;;;23.20;32.50;;;;;;5054550;28;20052;-63
2023/02/18 09:40:00;;;;;;;9.30;7.72;;;23.30;32.50;;;;;;5054588;28;20049;-63
2023/02/18 09:42:31;;;;;;;11.18;8.40;;;23.30;32.40;;;;;;5054574;28;20064;-63
2023/02/18 09:45:02;;;;;;;9.98;7.53;;;23.30;32.40;;;;;;5054735;28;20128;-63
2023/02/18 09:47:39;;;;;;;8.48;7.18;;;23.40;32.40;;;;;;5053227;28;20041;-63
2023/02/18 09:50:20;;;;;;;10.82;8.07;;;23.40;32.30;;;;;;5054358;28;20049;-63
2023/02/18 09:52:48;;;;;;;9.77;8.15;;;23.40;32.30;;;;;;5054007;28;20075;-63
2023/02/18 09:55:32;;;;;;;10.73;7.82;;;23.40;32.30;;;;;;5053754;28;20055;-64
2023/02/18 09:58:06;;;;;;;10.93;8.20;;;23.50;32.30;;;;;;5054216;28;20400;-63
2023/02/18 10:00:37;;;;;;;11.18;7.47;;;23.50;32.30;;;;;;5054479;28;20057;-63
2023/02/18 10:03:17;;;;;;;10.05;8.10;;;23.60;32.30;;;;;;5053803;28;20094;-63
2023/02/18 10:06:02;;;;;;;9.73;7.25;;;23.60;32.20;;;;;;5054204;28;20059;-63
2023/02/18 10:08:35;;;;;;;10.90;8.48;;;23.60;32.20;;;;;;5053977;28;20088;-63
2023/02/18 10:11:03;;;;;;;8.48;7.13;;;23.70;32.20;;;;;;5053583;28;20505;-63
2023/02/18 10:13:33;;;;;;;11.13;8.38;;;23.70;32.10;;;;;;5053785;28;20045;-63
2023/02/18 10:16:02;;;;;;;9.75;7.70;;;23.70;32.00;;;;;;5053660;28;20053;-63
2023/02/18 10:18:34;;;;;;;9.20;7.88;;;23.70;31.90;;;;;;5053109;28;20088;-63
2023/02/18 10:21:08;;;;;;;10.07;7.63;;;23.80;31.90;;;;;;5052183;28;20411;-63
2023/02/18 10:23:39;;;;;;;10.30;7.82;;;23.80;31.90;;;;;;5053988;28;20049;-63
2023/02/18 10:26:13;;;;;;;10.40;8.20;;;23.80;31.80;;;;;;5053434;28;20082;-63
2023/02/18 10:28:41;;;;;;;9.65;7.47;;;23.90;31.90;;;;;;5053681;28;20053;-62
2023/02/18 10:31:10;;;;;;;9.93;8.10;;;23.90;32.40;;;;;;5053333;28;20136;-63
2023/02/18 10:34:06;;;;;;;11.55;9.27;;;23.90;32.30;;;;;;5053327;28;20049;-63
2023/02/18 10:36:45;;;;;;;11.50;8.70;;;23.90;31.70;;;;;;5051820;28;20059;-63
2023/02/18 10:39:37;;;;;;;9.73;7.82;;;23.90;31.60;;;;;;5053229;28;20135;-62
2023/02/18 10:42:35;;;;;;;9.65;7.63;;;24.00;31.60;;;;;;5052696;28;20048;-62
2023/02/18 10:45:18;;;;;;;10.15;8.15;;;24.00;31.50;;;;;;5053228;28;20082;-62
2023/02/18 10:48:17;;;;;;;12.05;9.10;;;24.10;31.50;;;;;;5052021;28;20045;-62
2023/02/18 10:50:45;;;;;;;10.90;8.50;;;24.10;31.40;;;;;;5053669;28;20118;-63
2023/02/18 10:53:37;;;;;;;13.32;8.93;;;24.10;31.40;;;;;;5052725;28;20052;-63
2023/02/18 10:56:06;;;;;;;11.98;8.27;;;24.10;31.40;;;;;;5051977;28;20045;-63
2023/02/18 10:58:41;;;;;;;10.10;7.97;;;24.10;31.40;;;;;;5053098;28;20056;-63
2023/02/18 11:01:18;;;;;;;10.93;8.07;;;24.20;31.40;;;;;;5051729;28;20048;-63
2023/02/18 11:03:49;;;;;;;11.77;8.20;;;24.20;31.30;;;;;;5053610;28;20049;-63
2023/02/18 11:06:31;;;;;;;11.57;8.43;;;24.20;31.30;;;;;;5053174;28;20170;-63
2023/02/18 11:08:59;;;;;;;10.73;8.15;;;24.20;31.30;;;;;;5050964;28;20044;-63
2023/02/18 11:11:39;;;;;;;10.13;8.02;;;24.20;31.30;;;;;;5052915;28;20413;-63
2023/02/18 11:14:15;;;;;;;11.88;8.57;;;24.30;31.40;;;;;;5051365;28;20048;-63
2023/02/18 11:16:45;;;;;;;12.20;9.98;;;24.30;31.30;;;;;;5052668;28;20490;-63
2023/02/18 11:19:35;;;;;;;13.85;9.32;;;24.30;31.30;;;;;;5051800;28;20052;-63
2023/02/18 11:22:19;;;;;;;11.93;8.90;;;24.30;31.20;;;;;;5051538;28;20045;-63
2023/02/18 11:24:49;;;;;;;10.80;8.63;;;24.30;31.20;;;;;;5053018;28;20059;-63
2023/02/18 11:27:43;;;;;;;9.52;8.18;;;24.40;31.20;;;;;;5052399;28;20575;-63
2023/02/18 11:30:22;;;;;;;9.05;7.97;;;24.40;31.10;;;;;;5052810;28;20049;-63
2023/02/18 11:32:55;;;;;;;9.88;8.27;;;24.50;31.20;;;;;;5052693;28;20053;-62
2023/02/18 11:35:26;;;;;;;11.35;8.82;;;24.40;31.10;;;;;;5052856;28;20127;-62
2023/02/18 11:37:55;;;;;;;12.30;8.52;;;24.50;31.10;;;;;;5052887;28;20127;-63
2023/02/18 11:40:27;;;;;;;10.77;8.25;;;24.50;31.00;;;;;;5052868;28;20412;-63
2023/02/18 11:43:13;;;;;;;10.80;8.20;;;24.50;31.00;;;;;;5055117;28;20045;-63
2023/02/18 11:45:41;;;;;;;11.98;8.40;;;24.50;31.00;;;;;;5055215;28;20055;-63
2023/02/18 11:48:17;;;;;;;9.40;7.88;;;24.60;31.00;;;;;;5056941;28;20084;-63
2023/02/18 11:50:51;;;;;;;10.48;8.23;;;24.60;31.00;;;;;;5055749;28;20082;-63
2023/02/18 11:53:31;;;;;;;10.88;7.97;;;24.60;31.00;;;;;;5056855;28;20048;-63
2023/02/18 11:56:01;;;;;;;9.52;7.65;;;24.60;31.00;;;;;;5056455;28;20060;-63
2023/02/18 11:58:38;;;;;;;10.40;8.48;;;24.60;31.00;;;;;;5056143;28;20045;-63
2023/02/18 12:01:12;;;;;;;12.50;9.02;;;24.60;31.00;;;;;;5056444;28;20049;-63
2023/02/18 12:03:58;;;;;;;11.52;7.35;;;24.60;31.00;;;;;;5056354;28;20049;-63
2023/02/18 12:06:33;;;;;;;9.65;7.78;;;24.60;31.00;;;;;;5056156;28;20053;-63
2023/02/18 12:09:13;;;;;;;9.90;8.23;;;24.60;31.00;;;;;;5056528;28;20436;-63
2023/02/18 12:11:45;;;;;;;11.43;8.50;;;24.60;31.00;;;;;;5056439;28;20064;-63
2023/02/18 12:14:21;;;;;;;11.07;8.27;;;24.70;31.00;;;;;;5056269;28;20048;-63
2023/02/18 12:17:16;;;;;;;11.30;9.07;;;24.70;31.00;;;;;;5055529;28;20044;-63
2023/02/18 12:20:18;;;;;;;10.18;8.23;;;24.70;31.00;;;;;;5045611;28;20050;-63
2023/02/18 12:23:01;;;;;;;10.43;7.95;;;24.70;31.00;;;;;;5044369;28;20049;-63
2023/02/18 12:25:46;;;;;;;9.98;7.57;;;24.60;31.00;;;;;;5059349;28;20049;-63
2023/02/18 12:28:44;;;;;;;11.23;8.13;;;24.70;31.00;;;;;;5075953;28;20049;-63
2023/02/18 12:31:24;;;;;;;10.80;7.95;;;24.70;31.00;;;;;;5060510;28;20037;-63
2023/02/18 12:34:26;;;;;;;10.23;8.50;;;24.60;30.90;;;;;;5037975;28;20057;-63
2023/02/18 12:37:30;;;;;;;12.45;8.45;;;24.70;31.00;;;;;;5055980;28;20091;-63
2023/02/18 12:40:31;;;;;;;10.80;8.23;;;24.70;31.00;;;;;;5054518;28;20055;-63
2023/02/18 12:43:16;;;;;;;;;;;24.70;31.00;;;;;;5055896;28;20055;-63
2023/02/18 12:46:23;;;;;;;11.52;8.85;;;24.70;31.10;;;;;;5054709;28;19924;-63
2023/02/18 12:49:22;;;;;;;11.32;8.80;;;24.70;31.00;;;;;;5048895;28;20049;-63
2023/02/18 12:52:29;;;;;;;11.05;8.32;;;24.70;31.00;;;;;;5035472;28;20085;-63
2023/02/18 12:55:35;;;;;;;11.63;8.82;;;24.70;31.10;;;;;;5043346;28;20136;-63
2023/02/18 12:58:27;;;;;;;10.18;8.23;;;24.70;31.10;;;;;;5045900;28;20044;-63
2023/02/18 13:01:16;;;;;;;11.45;8.38;;;24.70;31.10;;;;;;5065107;28;20407;-63
2023/02/18 13:04:11;;;;;;;10.63;8.98;;;24.60;31.10;;;;;;5075557;28;20045;-63
2023/02/18 13:07:07;;;;;;;11.80;8.00;;;24.60;31.10;;;;;;5053514;28;20052;-63
2023/02/18 13:10:03;;;;;;;10.43;8.55;;;24.60;31.10;;;;;;5055339;28;20059;-63
2023/02/18 13:12:49;;;;;;;11.80;9.30;;;24.60;31.10;;;;;;5054408;28;20041;-63